createdAt,value
2023-05-20T00:00:06.991Z,10.37
2023-05-20T00:02:11.718Z,10.35
2023-05-20T00:04:15.569Z,10.32
2023-05-20T00:06:19.181Z,10.30
2023-05-20T00:08:22.701Z,10.27
2023-05-20T00:10:26.128Z,10.24
2023-05-20T00:12:29.622Z,10.21
2023-05-20T00:14:32.985Z,10.18
2023-05-20T00:16:36.820Z,10.15
2023-05-20T00:18:41.754Z,10.12
2023-05-20T00:20:45.187Z,10.08
2023-05-20T00:22:48.682Z,10.06
2023-05-20T00:24:52.191Z,10.02
2023-05-20T00:26:55.776Z,9.99
2023-05-20T00:28:59.220Z,9.98
2023-05-20T00:31:02.726Z,9.96
2023-05-20T00:33:06.656Z,9.95
2023-05-20T00:35:11.739Z,9.96
2023-05-20T00:37:15.215Z,9.96
2023-05-20T00:39:18.547Z,9.95
2023-05-20T00:41:22.696Z,9.96
2023-05-20T00:43:26.729Z,9.96
2023-05-20T00:45:30.786Z,9.95
2023-05-20T00:47:36.577Z,9.97
2023-05-20T00:49:40.398Z,9.98
2023-05-20T00:51:45.285Z,9.99
2023-05-20T00:53:48.923Z,9.99
2023-05-20T00:55:52.664Z,9.99
2023-05-20T00:57:56.580Z,9.99
2023-05-20T01:00:00.191Z,9.99
2023-05-20T01:02:04.253Z,9.98
2023-05-20T01:04:07.709Z,9.97
2023-05-20T01:06:11.260Z,9.97
2023-05-20T01:08:16.745Z,9.96
2023-05-20T01:10:20.440Z,9.95
2023-05-20T01:12:28.191Z,9.94
2023-05-20T01:14:37.109Z,9.94
2023-05-20T01:16:40.831Z,9.94
2023-05-20T01:18:45.078Z,9.94
2023-05-20T01:20:52.735Z,9.92
2023-05-20T01:22:59.027Z,9.92
2023-05-20T01:25:03.180Z,9.93
2023-05-20T01:27:10.711Z,9.92
2023-05-20T01:29:14.132Z,9.92
2023-05-20T01:31:22.961Z,9.92
2023-05-20T01:33:27.389Z,9.92
2023-05-20T01:35:31.465Z,9.92
2023-05-20T01:37:38.002Z,9.91
2023-05-20T01:39:43.925Z,9.88
2023-05-20T01:41:49.065Z,9.87
2023-05-20T01:43:52.572Z,9.85
2023-05-20T01:45:56.359Z,9.85
2023-05-20T01:47:59.905Z,9.84
2023-05-20T01:50:03.527Z,9.83
2023-05-20T01:52:07.093Z,9.81
2023-05-20T01:54:10.752Z,9.79
2023-05-20T01:56:16.464Z,9.78
2023-05-20T01:58:19.969Z,9.76
2023-05-20T02:00:23.438Z,9.75
2023-05-20T02:02:27.047Z,9.74
2023-05-20T02:04:30.536Z,9.74
2023-05-20T02:06:34.011Z,9.74
2023-05-20T02:08:37.412Z,9.73
2023-05-20T02:10:40.799Z,9.72
2023-05-20T02:12:46.342Z,9.72
2023-05-20T02:14:50.524Z,9.70
2023-05-20T02:16:54.198Z,9.69
2023-05-20T02:18:58.731Z,9.66
2023-05-20T02:21:03.964Z,9.65
2023-05-20T02:23:07.613Z,9.65
2023-05-20T02:25:11.702Z,9.63
2023-05-20T02:27:15.089Z,9.61
2023-05-20T02:29:22.151Z,9.58
2023-05-20T02:31:27.078Z,9.57
2023-05-20T02:33:31.604Z,9.55
2023-05-20T02:35:36.300Z,9.52
2023-05-20T02:37:40.388Z,9.50
2023-05-20T02:39:43.682Z,9.48
2023-05-20T02:41:47.225Z,9.47
2023-05-20T02:43:50.653Z,9.46
2023-05-20T02:45:55.454Z,9.44
2023-05-20T02:47:58.844Z,9.43
2023-05-20T02:50:02.294Z,9.40
2023-05-20T02:52:06.678Z,9.39
2023-05-20T02:54:10.018Z,9.36
2023-05-20T02:56:13.367Z,9.34
2023-05-20T02:58:17.367Z,9.31
2023-05-20T03:00:20.815Z,9.29
2023-05-20T03:02:26.532Z,9.27
2023-05-20T03:04:29.932Z,9.26
2023-05-20T03:06:34.769Z,9.24
2023-05-20T03:08:39.732Z,9.24
2023-05-20T03:10:43.137Z,9.22
2023-05-20T03:12:46.457Z,9.23
2023-05-20T03:14:50.556Z,9.21
2023-05-20T03:16:55.509Z,9.21
2023-05-20T03:19:00.376Z,9.18
2023-05-20T03:21:04.272Z,9.18
2023-05-20T03:23:07.902Z,9.17
2023-05-20T03:25:13.410Z,9.18
2023-05-20T03:27:16.804Z,9.18
2023-05-20T03:29:20.415Z,9.18
2023-05-20T03:31:23.920Z,9.19
2023-05-20T03:33:27.418Z,9.19
2023-05-20T03:35:32.840Z,9.21
2023-05-20T03:37:36.888Z,9.21
2023-05-20T03:39:40.609Z,9.23
2023-05-20T03:41:43.966Z,9.25
2023-05-20T03:43:47.346Z,9.23
2023-05-20T03:45:50.860Z,9.25
2023-05-20T03:47:54.287Z,9.25
2023-05-20T03:49:58.732Z,9.26
2023-05-20T03:52:04.099Z,9.27
2023-05-20T03:54:07.805Z,9.28
2023-05-20T03:56:11.239Z,9.28
2023-05-20T03:58:16.711Z,9.31
2023-05-20T04:00:20.133Z,9.33
2023-05-20T04:02:25.803Z,9.36
2023-05-20T04:04:29.430Z,9.38
2023-05-20T04:06:33.076Z,9.42
2023-05-20T04:08:38.669Z,9.46
2023-05-20T04:10:43.230Z,9.49
2023-05-20T04:12:48.220Z,9.52
2023-05-20T04:14:52.782Z,9.55
2023-05-20T04:16:57.482Z,9.59
2023-05-20T04:19:02.792Z,9.64
2023-05-20T04:21:06.811Z,9.69
2023-05-20T04:23:10.195Z,9.72
2023-05-20T04:25:15.249Z,9.77
2023-05-20T04:27:18.944Z,9.80
2023-05-20T04:29:23.154Z,9.84
2023-05-20T04:31:27.495Z,9.86
2023-05-20T04:33:30.936Z,9.89
2023-05-20T04:35:35.355Z,9.92
2023-05-20T04:37:42.526Z,9.94
2023-05-20T04:39:48.382Z,9.96
2023-05-20T04:41:55.110Z,9.98
2023-05-20T04:44:00.669Z,9.98
2023-05-20T04:46:06.161Z,9.97
2023-05-20T04:48:09.888Z,9.97
2023-05-20T04:50:14.940Z,9.97
2023-05-20T04:52:18.284Z,9.99
2023-05-20T04:54:21.685Z,10.01
2023-05-20T04:56:26.192Z,10.01
2023-05-20T04:58:31.837Z,10.01
2023-05-20T05:00:35.878Z,10.02
2023-05-20T05:02:40.282Z,10.02
2023-05-20T05:04:43.759Z,10.05
2023-05-20T05:06:49.391Z,10.07
2023-05-20T05:08:53.091Z,10.10
2023-05-20T05:10:56.733Z,10.13
2023-05-20T05:13:00.230Z,10.17
2023-05-20T05:15:06.064Z,10.20
2023-05-20T05:17:09.571Z,10.23
2023-05-20T05:19:13.709Z,10.26
2023-05-20T05:21:17.910Z,10.30
2023-05-20T05:23:23.612Z,10.36
2023-05-20T05:25:27.728Z,10.42
2023-05-20T05:27:31.131Z,10.47
2023-05-20T05:29:35.520Z,10.52
2023-05-20T05:31:40.300Z,10.58
2023-05-20T05:33:44.144Z,10.62
2023-05-20T05:35:47.559Z,10.66
2023-05-20T05:37:51.174Z,10.71
2023-05-20T05:39:54.533Z,10.77
2023-05-20T05:41:57.950Z,10.83
2023-05-20T05:44:01.840Z,10.88
2023-05-20T05:46:06.752Z,10.95
2023-05-20T05:48:11.819Z,11.02
2023-05-20T05:50:15.594Z,11.09
2023-05-20T05:52:19.106Z,11.16
2023-05-20T05:54:22.415Z,11.26
2023-05-20T05:56:26.390Z,11.34
2023-05-20T05:58:29.746Z,11.43
2023-05-20T06:00:33.117Z,11.51
2023-05-20T06:02:36.666Z,11.59
2023-05-20T06:04:41.797Z,11.67
2023-05-20T06:06:45.128Z,11.75
2023-05-20T06:08:48.657Z,11.84
2023-05-20T06:10:52.684Z,11.94
2023-05-20T06:12:56.496Z,12.03
2023-05-20T06:15:00.219Z,12.13
2023-05-20T06:17:04.088Z,12.23
2023-05-20T06:19:09.501Z,12.29
2023-05-20T06:21:14.588Z,12.35
2023-05-20T06:23:17.964Z,12.42
2023-05-20T06:25:31.242Z,12.50
2023-05-20T06:27:34.686Z,12.57
2023-05-20T06:29:38.133Z,12.63
2023-05-20T06:31:41.516Z,12.66
2023-05-20T06:33:44.941Z,12.70
2023-05-20T06:35:49.642Z,12.73
2023-05-20T06:37:55.407Z,12.76
2023-05-20T06:39:58.912Z,12.77
2023-05-20T06:42:02.224Z,12.80
2023-05-20T06:44:07.738Z,12.86
2023-05-20T06:46:29.234Z,12.96
2023-05-20T06:48:39.995Z,13.04
2023-05-20T06:50:44.206Z,13.12
2023-05-20T06:52:47.786Z,13.22
2023-05-20T06:54:53.155Z,13.34
2023-05-20T06:56:56.618Z,13.46
2023-05-20T06:59:00.687Z,13.59
2023-05-20T07:01:04.611Z,13.72
2023-05-20T07:03:08.606Z,13.81
2023-05-20T07:05:12.290Z,13.88
2023-05-20T07:07:17.368Z,13.96
2023-05-20T07:09:21.986Z,14.03
2023-05-20T07:11:26.836Z,14.13
2023-05-20T07:13:31.790Z,14.24
2023-05-20T07:15:35.579Z,14.35
2023-05-20T07:17:39.259Z,14.42
2023-05-20T07:19:42.689Z,14.49
2023-05-20T07:21:46.125Z,14.54
2023-05-20T07:24:10.746Z,14.59
2023-05-20T07:26:14.175Z,14.66
2023-05-20T07:28:19.117Z,14.74
2023-05-20T07:30:22.558Z,14.84
2023-05-20T07:32:45.940Z,14.93
2023-05-20T07:34:49.434Z,15.00
2023-05-20T07:36:53.609Z,15.05
2023-05-20T07:39:04.224Z,15.09
2023-05-20T07:41:12.488Z,15.17
2023-05-20T07:43:16.458Z,15.21
2023-05-20T07:45:21.644Z,15.26
2023-05-20T07:47:25.472Z,15.33
2023-05-20T07:49:28.991Z,15.37
2023-05-20T07:51:32.382Z,15.39
2023-05-20T07:53:36.334Z,15.42
2023-05-20T07:55:39.770Z,15.49
2023-05-20T07:57:44.795Z,15.54
2023-05-20T07:59:48.576Z,15.58
2023-05-20T08:01:54.359Z,15.59
2023-05-20T08:03:58.519Z,15.58
2023-05-20T08:06:02.258Z,15.57
2023-05-20T08:08:06.793Z,15.57
2023-05-20T08:10:22.040Z,15.59
2023-05-20T08:12:25.807Z,15.59
2023-05-20T08:14:29.362Z,15.59
2023-05-20T08:16:32.901Z,15.65
2023-05-20T08:18:38.560Z,15.70
2023-05-20T08:20:42.337Z,15.73
2023-05-20T08:22:45.698Z,15.73
2023-05-20T08:24:49.022Z,15.78
2023-05-20T08:26:52.663Z,15.79
2023-05-20T08:28:58.474Z,15.78
2023-05-20T08:31:03.350Z,15.75
2023-05-20T08:33:08.297Z,15.72
2023-05-20T08:35:13.510Z,15.72
2023-05-20T08:37:17.723Z,15.75
2023-05-20T08:39:21.647Z,15.76
2023-05-20T08:41:25.830Z,15.76
2023-05-20T08:43:32.816Z,15.78
2023-05-20T08:45:40.155Z,15.87
2023-05-20T08:47:48.923Z,15.99
2023-05-20T08:49:52.306Z,16.08
2023-05-20T08:51:57.406Z,16.16
2023-05-20T08:54:01.110Z,16.19
2023-05-20T08:56:04.500Z,16.20
2023-05-20T08:58:07.954Z,16.23
2023-05-20T09:00:13.523Z,16.30
2023-05-20T09:02:16.977Z,16.42
2023-05-20T09:04:20.818Z,16.54
2023-05-20T09:06:24.223Z,16.67
2023-05-20T09:08:29.105Z,16.82
2023-05-20T09:10:33.320Z,16.93
2023-05-20T09:12:36.810Z,16.94
2023-05-20T09:14:40.160Z,16.95
2023-05-20T09:16:44.363Z,16.99
2023-05-20T09:18:48.070Z,17.06
2023-05-20T09:20:53.034Z,17.09
2023-05-20T09:23:00.171Z,17.05
2023-05-20T09:25:05.471Z,17.04
2023-05-20T09:27:10.433Z,17.12
2023-05-20T09:29:13.770Z,17.18
2023-05-20T09:31:17.783Z,17.21
2023-05-20T09:33:22.063Z,17.28
2023-05-20T09:35:26.398Z,17.41
2023-05-20T09:37:31.318Z,17.57
2023-05-20T09:39:41.132Z,17.74
2023-05-20T09:41:55.441Z,17.86
2023-05-20T09:43:59.741Z,17.98
2023-05-20T09:46:03.586Z,18.13
2023-05-20T09:48:10.942Z,18.20
2023-05-20T09:50:16.406Z,18.19
2023-05-20T09:52:21.396Z,18.12
2023-05-20T09:54:25.733Z,18.02
2023-05-20T09:56:30.221Z,17.91
2023-05-20T09:58:36.988Z,17.82
2023-05-20T10:00:40.840Z,17.68
2023-05-20T10:02:45.960Z,17.57
2023-05-20T10:04:52.960Z,17.48
2023-05-20T10:07:30.546Z,17.41
2023-05-20T10:09:57.415Z,17.28
2023-05-20T10:12:18.825Z,17.17
2023-05-20T10:14:35.344Z,17.07
2023-05-20T10:16:46.779Z,16.97
2023-05-20T10:18:57.322Z,16.90
2023-05-20T10:21:01.374Z,16.84
2023-05-20T10:23:05.644Z,16.79
2023-05-20T10:25:13.202Z,16.72
2023-05-20T10:27:19.174Z,16.65
2023-05-20T10:29:25.544Z,16.59
2023-05-20T10:31:28.865Z,16.58
2023-05-20T10:33:42.988Z,16.58
2023-05-20T10:35:51.895Z,16.61
2023-05-20T10:37:56.857Z,16.67
2023-05-20T10:40:09.819Z,16.74
2023-05-20T10:42:13.168Z,16.88
2023-05-20T10:44:16.461Z,17.02
2023-05-20T10:46:31.192Z,17.16
2023-05-20T10:48:44.320Z,17.37
2023-05-20T10:50:47.891Z,17.53
2023-05-20T10:52:51.388Z,17.58
2023-05-20T10:54:57.794Z,17.53
2023-05-20T10:57:01.594Z,17.46
2023-05-20T10:59:05.729Z,17.40
2023-05-20T11:01:09.178Z,17.36
2023-05-20T11:03:15.449Z,17.27
2023-05-20T11:05:19.447Z,17.16
2023-05-20T11:07:29.546Z,17.03
2023-05-20T11:09:34.027Z,16.95
2023-05-20T11:11:38.745Z,16.89
2023-05-20T11:13:42.414Z,16.83
2023-05-20T11:15:45.828Z,16.75
2023-05-20T11:17:55.975Z,16.67
2023-05-20T11:20:01.584Z,16.61
2023-05-20T11:22:09.091Z,16.63
2023-05-20T11:24:12.734Z,16.72
2023-05-20T11:26:16.197Z,16.82
2023-05-20T11:28:21.446Z,16.84
2023-05-20T11:30:25.071Z,16.83
2023-05-20T11:32:28.765Z,16.76
2023-05-20T11:34:36.497Z,16.62
2023-05-20T11:36:43.777Z,16.56
2023-05-20T11:38:48.120Z,16.55
2023-05-20T11:40:54.427Z,16.55
2023-05-20T11:42:59.278Z,16.52
2023-05-20T11:45:02.851Z,16.48
2023-05-20T11:47:06.741Z,16.46
2023-05-20T11:49:10.082Z,16.47
2023-05-20T11:51:14.779Z,16.51
2023-05-20T11:53:20.948Z,16.53
2023-05-20T11:55:24.364Z,16.55
2023-05-20T11:57:27.770Z,16.54
2023-05-20T11:59:31.221Z,16.52
2023-05-20T12:01:37.778Z,16.48
2023-05-20T12:03:41.358Z,16.45
2023-05-20T12:05:44.930Z,16.44
2023-05-20T12:07:48.236Z,16.45
2023-05-20T12:09:53.230Z,16.45
2023-05-20T12:11:57.191Z,16.44
2023-05-20T12:14:00.749Z,16.41
2023-05-20T12:16:06.044Z,16.36
2023-05-20T12:18:10.141Z,16.32
2023-05-20T12:20:15.318Z,16.27
2023-05-20T12:22:18.679Z,16.22
2023-05-20T12:24:22.050Z,16.20
2023-05-20T12:26:28.095Z,16.19
2023-05-20T12:28:32.242Z,16.15
2023-05-20T12:30:36.003Z,16.11
2023-05-20T12:32:39.862Z,16.08
2023-05-20T12:34:43.211Z,16.07
2023-05-20T12:36:47.235Z,16.09
2023-05-20T12:38:50.622Z,16.08
2023-05-20T12:40:53.947Z,16.08
2023-05-20T12:42:59.151Z,16.05
2023-05-20T12:45:02.453Z,16.01
2023-05-20T12:47:06.331Z,15.99
2023-05-20T12:49:09.774Z,15.97
2023-05-20T12:51:13.135Z,15.95
2023-05-20T12:53:16.568Z,15.93
2023-05-20T12:55:20.029Z,15.93
2023-05-20T12:57:23.579Z,15.91
2023-05-20T12:59:28.337Z,15.89
2023-05-20T13:01:31.911Z,15.88
2023-05-20T13:03:35.392Z,15.92
2023-05-20T13:05:38.996Z,16.00
2023-05-20T13:07:42.392Z,16.06
2023-05-20T13:09:46.281Z,16.07
2023-05-20T13:11:49.661Z,16.07
2023-05-20T13:13:53.170Z,16.06
2023-05-20T13:15:57.905Z,16.04
2023-05-20T13:18:03.450Z,16.04
2023-05-20T13:20:08.653Z,16.07
2023-05-20T13:22:12.028Z,16.14
2023-05-20T13:24:15.436Z,16.21
2023-05-20T13:26:18.871Z,16.27
2023-05-20T13:28:22.522Z,16.33
2023-05-20T13:30:26.008Z,16.36
2023-05-20T13:32:30.946Z,16.37
2023-05-20T13:34:34.334Z,16.39
2023-05-20T13:36:37.707Z,16.38
2023-05-20T13:38:41.276Z,16.37
2023-05-20T13:40:44.658Z,16.38
2023-05-20T13:42:48.200Z,16.38
2023-05-20T13:44:51.738Z,16.39
2023-05-20T13:46:55.121Z,16.42
2023-05-20T13:48:59.949Z,16.47
2023-05-20T13:51:03.278Z,16.54
2023-05-20T13:53:06.634Z,16.61
2023-05-20T13:55:10.932Z,16.67
2023-05-20T13:57:14.301Z,16.69
2023-05-20T13:59:17.725Z,16.68
2023-05-20T14:01:21.100Z,16.65
2023-05-20T14:03:24.513Z,16.61
2023-05-20T14:05:29.302Z,16.56
2023-05-20T14:07:32.695Z,16.53
2023-05-20T14:09:36.487Z,16.54
2023-05-20T14:11:39.879Z,16.53
2023-05-20T14:13:44.556Z,16.52
2023-05-20T14:15:47.999Z,16.52
2023-05-20T14:17:51.901Z,16.52
2023-05-20T14:19:55.608Z,16.53
2023-05-20T14:22:01.357Z,16.57
2023-05-20T14:24:04.957Z,16.58
2023-05-20T14:26:08.363Z,16.57
2023-05-20T14:28:11.657Z,16.56
2023-05-20T14:30:15.231Z,16.55
2023-05-20T14:32:18.695Z,16.57
2023-05-20T14:34:22.488Z,16.58
2023-05-20T14:36:25.990Z,16.59
2023-05-20T14:38:31.401Z,16.56
2023-05-20T14:40:34.979Z,16.53
2023-05-20T14:42:38.585Z,16.49
2023-05-20T14:44:42.038Z,16.47
2023-05-20T14:46:45.484Z,16.47
2023-05-20T14:48:48.856Z,16.49
2023-05-20T14:50:52.443Z,16.55
2023-05-20T14:52:55.909Z,16.68
2023-05-20T14:55:00.628Z,16.79
2023-05-20T14:57:04.134Z,16.84
2023-05-20T14:59:09.906Z,16.84
2023-05-20T15:01:13.740Z,16.81
2023-05-20T15:03:17.318Z,16.72
2023-05-20T15:05:20.923Z,16.64
2023-05-20T15:07:24.269Z,16.56
2023-05-20T15:09:27.987Z,16.48
2023-05-20T15:11:33.055Z,16.40
2023-05-20T15:13:38.970Z,16.33
2023-05-20T15:15:43.634Z,16.25
2023-05-20T15:17:47.245Z,16.18
2023-05-20T15:19:50.666Z,16.13
2023-05-20T15:21:54.977Z,16.09
2023-05-20T15:23:58.880Z,16.07
2023-05-20T15:26:02.416Z,16.03
2023-05-20T15:28:07.199Z,16.01
2023-05-20T15:30:11.546Z,16.00
2023-05-20T15:32:14.899Z,16.00
2023-05-20T15:34:19.721Z,16.04
2023-05-20T15:36:23.226Z,16.08
2023-05-20T15:38:26.649Z,16.10
2023-05-20T15:40:30.048Z,16.13
2023-05-20T15:42:33.410Z,16.16
2023-05-20T15:44:38.561Z,16.18
2023-05-20T15:46:41.945Z,16.17
2023-05-20T15:48:45.332Z,16.14
2023-05-20T15:50:48.825Z,16.15
2023-05-20T15:52:53.489Z,16.17
2023-05-20T15:54:56.850Z,16.18
2023-05-20T15:57:00.194Z,16.20
2023-05-20T15:59:03.547Z,16.20
2023-05-20T16:01:08.517Z,16.20
2023-05-20T16:03:11.996Z,16.19
2023-05-20T16:05:15.759Z,16.20
2023-05-20T16:07:19.108Z,16.22
2023-05-20T16:09:22.502Z,16.24
2023-05-20T16:11:25.850Z,16.25
2023-05-20T16:13:29.248Z,16.25
2023-05-20T16:15:36.425Z,16.24
2023-05-20T16:17:41.477Z,16.20
2023-05-20T16:19:44.974Z,16.13
2023-05-20T16:21:48.361Z,16.07
2023-05-20T16:23:52.725Z,16.03
2023-05-20T16:25:56.100Z,16.00
2023-05-20T16:28:01.089Z,15.93
2023-05-20T16:30:05.202Z,15.87
2023-05-20T16:32:08.885Z,15.84
2023-05-20T16:34:14.043Z,15.82
2023-05-20T16:36:17.454Z,15.78
2023-05-20T16:38:21.113Z,15.77
2023-05-20T16:40:24.453Z,15.75
2023-05-20T16:42:27.919Z,15.76
2023-05-20T16:44:31.341Z,15.75
2023-05-20T16:46:34.942Z,15.76
2023-05-20T16:48:38.327Z,15.74
2023-05-20T16:50:43.219Z,15.72
2023-05-20T16:52:46.579Z,15.68
2023-05-20T16:54:51.967Z,15.66
2023-05-20T16:56:55.575Z,15.63
2023-05-20T16:58:58.897Z,15.61
2023-05-20T17:01:02.588Z,15.58
2023-05-20T17:03:06.118Z,15.55
2023-05-20T17:05:10.694Z,15.54
2023-05-20T17:07:15.586Z,15.51
2023-05-20T17:09:19.094Z,15.48
2023-05-20T17:11:22.631Z,15.47
2023-05-20T17:13:26.100Z,15.46
2023-05-20T17:15:29.458Z,15.45
2023-05-20T17:17:32.866Z,15.44
2023-05-20T17:19:36.344Z,15.43
2023-05-20T17:21:39.683Z,15.41
2023-05-20T17:23:44.432Z,15.40
2023-05-20T17:25:47.805Z,15.38
2023-05-20T17:27:51.217Z,15.37
2023-05-20T17:29:54.641Z,15.35
2023-05-20T17:31:57.940Z,15.33
2023-05-20T17:34:01.778Z,15.32
2023-05-20T17:36:05.678Z,15.30
2023-05-20T17:38:09.028Z,15.31
2023-05-20T17:40:15.022Z,15.31
2023-05-20T17:42:18.377Z,15.31
2023-05-20T17:44:21.772Z,15.28
2023-05-20T17:46:25.181Z,15.27
2023-05-20T17:48:28.601Z,15.26
2023-05-20T17:50:32.009Z,15.25
2023-05-20T17:52:35.461Z,15.24
2023-05-20T17:54:38.980Z,15.24
2023-05-20T17:56:45.455Z,15.24
2023-05-20T17:58:48.810Z,15.23
2023-05-20T18:00:52.328Z,15.22
2023-05-20T18:02:57.633Z,15.20
2023-05-20T18:05:01.195Z,15.17
2023-05-20T18:07:05.088Z,15.16
2023-05-20T18:09:08.572Z,15.16
2023-05-20T18:11:12.148Z,15.13
2023-05-20T18:13:16.947Z,15.13
2023-05-20T18:15:21.292Z,15.10
2023-05-20T18:17:24.786Z,15.08
2023-05-20T18:19:28.305Z,15.07
2023-05-20T18:21:31.755Z,15.06
2023-05-20T18:23:35.103Z,15.06
2023-05-20T18:25:40.453Z,15.05
2023-05-20T18:27:45.241Z,15.03
2023-05-20T18:29:50.611Z,15.02
2023-05-20T18:31:54.159Z,14.99
2023-05-20T18:33:57.534Z,14.96
2023-05-20T18:36:01.066Z,14.94
2023-05-20T18:38:04.458Z,14.92
2023-05-20T18:40:09.146Z,14.90
2023-05-20T18:42:12.512Z,14.90
2023-05-20T18:44:16.089Z,14.88
2023-05-20T18:46:21.025Z,14.86
2023-05-20T18:48:27.164Z,14.85
2023-05-20T18:50:30.843Z,14.81
2023-05-20T18:52:34.179Z,14.78
2023-05-20T18:54:37.576Z,14.74
2023-05-20T18:56:41.624Z,14.70
2023-05-20T18:58:44.951Z,14.66
2023-05-20T19:00:48.317Z,14.62
2023-05-20T19:02:53.147Z,14.59
2023-05-20T19:04:56.568Z,14.56
2023-05-20T19:07:00.880Z,14.52
2023-05-20T19:09:04.552Z,14.50
2023-05-20T19:11:07.872Z,14.45
2023-05-20T19:13:11.297Z,14.41
2023-05-20T19:15:15.822Z,14.35
2023-05-20T19:17:20.938Z,14.30
2023-05-20T19:19:26.118Z,14.22
2023-05-20T19:21:30.757Z,14.16
2023-05-20T19:23:34.102Z,14.07
2023-05-20T19:25:37.700Z,14.01
2023-05-20T19:27:41.396Z,13.95
2023-05-20T19:29:44.798Z,13.89
2023-05-20T19:31:48.149Z,13.83
2023-05-20T19:33:51.855Z,13.76
2023-05-20T19:35:57.806Z,13.71
2023-05-20T19:38:01.401Z,13.65
2023-05-20T19:40:05.302Z,13.59
2023-05-20T19:42:08.767Z,13.54
2023-05-20T19:44:12.087Z,13.48
2023-05-20T19:46:15.486Z,13.45
2023-05-20T19:48:21.338Z,13.39
2023-05-20T19:52:43.478Z,13.34
2023-05-20T19:54:46.889Z,13.33
2023-05-20T19:56:50.332Z,13.30
2023-05-20T19:58:53.731Z,13.28
2023-05-20T20:00:57.078Z,13.25
2023-05-20T20:03:03.178Z,13.24
2023-05-20T20:05:07.663Z,13.23
2023-05-20T20:07:11.140Z,13.21
2023-05-20T20:09:16.079Z,13.19
2023-05-20T20:11:19.515Z,13.16
2023-05-20T20:13:22.857Z,13.13
2023-05-20T20:15:27.165Z,13.10
2023-05-20T20:17:30.900Z,13.07
2023-05-20T20:19:34.286Z,13.05
2023-05-20T20:21:40.251Z,13.03
2023-05-20T20:23:44.007Z,13.01
2023-05-20T20:25:50.704Z,12.99
2023-05-20T20:27:54.168Z,12.98
2023-05-20T20:29:57.618Z,12.96
2023-05-20T20:32:01.161Z,12.94
2023-05-20T20:34:04.598Z,12.92
2023-05-20T20:36:08.967Z,12.91
2023-05-20T20:38:12.375Z,12.90
2023-05-20T20:40:16.509Z,12.90
2023-05-20T20:42:22.384Z,12.89
2023-05-20T20:44:26.704Z,12.88
2023-05-20T20:46:30.314Z,12.87
2023-05-20T20:48:34.614Z,12.86
2023-05-20T20:50:39.011Z,12.86
2023-05-20T20:52:42.802Z,12.85
2023-05-20T20:54:46.229Z,12.84
2023-05-20T20:56:50.222Z,12.81
2023-05-20T20:58:57.354Z,12.82
2023-05-20T21:01:00.738Z,12.80
2023-05-20T21:03:06.456Z,12.78
2023-05-20T21:05:10.515Z,12.77
2023-05-20T21:07:18.416Z,12.77
2023-05-20T21:09:22.543Z,12.75
2023-05-20T21:11:28.083Z,12.74
2023-05-20T21:13:31.807Z,12.72
2023-05-20T21:15:36.804Z,12.71
2023-05-20T21:17:40.374Z,12.69
2023-05-20T21:19:43.790Z,12.67
2023-05-20T21:21:47.229Z,12.67
2023-05-20T21:23:52.139Z,12.64
2023-05-20T21:25:55.493Z,12.63
2023-05-20T21:27:58.876Z,12.61
2023-05-20T21:30:02.360Z,12.60
2023-05-20T21:32:08.589Z,12.58
2023-05-20T21:34:12.837Z,12.57
2023-05-20T21:36:16.719Z,12.54
2023-05-20T21:38:20.099Z,12.53
2023-05-20T21:40:23.544Z,12.52
2023-05-20T21:42:27.815Z,12.50
2023-05-20T21:44:31.326Z,12.49
2023-05-20T21:46:35.194Z,12.47
2023-05-20T21:48:40.765Z,12.47
2023-05-20T21:50:44.561Z,12.46
2023-05-20T21:52:47.994Z,12.44
2023-05-20T21:54:51.797Z,12.43
2023-05-20T21:56:55.407Z,12.41
2023-05-20T21:58:58.922Z,12.40
2023-05-20T22:01:02.648Z,12.38
2023-05-20T22:03:06.371Z,12.37
2023-05-20T22:05:12.613Z,12.36
2023-05-20T22:07:16.348Z,12.34
2023-05-20T22:09:19.862Z,12.33
2023-05-20T22:11:24.082Z,12.31
2023-05-20T22:13:28.149Z,12.29
2023-05-20T22:15:31.890Z,12.26
2023-05-20T22:17:35.701Z,12.24
2023-05-20T22:19:40.250Z,12.21
2023-05-20T22:21:50.771Z,12.19
2023-05-20T22:23:54.998Z,12.19
2023-05-20T22:25:58.627Z,12.17
2023-05-20T22:28:04.697Z,12.15
2023-05-20T22:30:09.965Z,12.13
2023-05-20T22:32:18.988Z,12.11
2023-05-20T22:34:22.449Z,12.10
2023-05-20T22:36:25.870Z,12.08
2023-05-20T22:38:30.915Z,12.06
2023-05-20T22:40:34.808Z,12.05
2023-05-20T22:42:38.177Z,12.04
2023-05-20T22:44:41.539Z,12.04
2023-05-20T22:46:44.914Z,12.04
2023-05-20T22:48:48.357Z,12.02
2023-05-20T22:50:54.109Z,12.01
2023-05-20T22:52:57.610Z,12.00
2023-05-20T22:55:02.431Z,12.00
2023-05-20T22:57:06.195Z,11.99
2023-05-20T22:59:09.544Z,11.99
2023-05-20T23:01:13.372Z,11.99
2023-05-20T23:03:16.936Z,11.99
2023-05-20T23:05:20.487Z,11.98
2023-05-20T23:07:23.886Z,11.98
2023-05-20T23:09:27.262Z,11.97
2023-05-20T23:11:32.029Z,11.96
2023-05-20T23:13:35.430Z,11.96
2023-05-20T23:15:48.019Z,11.93
2023-05-20T23:17:52.134Z,11.93
2023-05-20T23:19:55.646Z,11.92
2023-05-20T23:21:58.920Z,11.91
2023-05-20T23:24:02.215Z,11.91
2023-05-20T23:26:05.624Z,11.89
2023-05-20T23:28:10.293Z,11.88
2023-05-20T23:30:13.801Z,11.87
2023-05-20T23:32:17.048Z,11.87
2023-05-20T23:34:20.263Z,11.85
2023-05-20T23:36:23.507Z,11.86
2023-05-20T23:38:26.821Z,11.86
2023-05-20T23:40:30.172Z,11.85
2023-05-20T23:42:33.369Z,11.84
2023-05-20T23:44:37.990Z,11.83
2023-05-20T23:46:41.833Z,11.82
2023-05-20T23:48:45.365Z,11.82
2023-05-20T23:50:48.957Z,11.80
2023-05-20T23:52:52.341Z,11.77
2023-05-20T23:54:56.355Z,11.75
2023-05-20T23:56:59.654Z,11.71
2023-05-20T23:59:02.877Z,11.70
